sensor_id;sensor_type;location;lat;lon;timestamp;pressure;altitude;pressure_sealevel;temperature;humidity
7748;BME280;3918;42.564;23.164;2023-06-26T04:01:16;-11650.84;;;-142.29;100.00
7748;BME280;3918;42.564;23.164;2023-06-26T04:03:43;-11650.84;;;-142.29;100.00
7748;BME280;3918;42.564;23.164;2023-06-26T04:06:09;-11650.84;;;-142.29;100.00
7748;BME280;3918;42.564;23.164;2023-06-26T04:08:36;-11650.84;;;-142.29;100.00
7748;BME280;3918;42.564;23.164;2023-06-26T04:11:03;-11650.84;;;-142.29;100.00
7748;BME280;3918;42.564;23.164;2023-06-26T04:13:30;-11650.84;;;-142.29;100.00
7748;BME280;3918;42.564;23.164;2023-06-26T04:15:56;-11650.84;;;-142.29;100.00
7748;BME280;3918;42.564;23.164;2023-06-26T04:18:24;-11650.84;;;-142.29;100.00
7748;BME280;3918;42.564;23.164;2023-06-26T04:21:06;-11650.84;;;-142.29;100.00
7748;BME280;3918;42.564;23.164;2023-06-26T04:23:33;-11650.84;;;-142.29;100.00
7748;BME280;3918;42.564;23.164;2023-06-26T04:26:01;-11650.84;;;-142.29;100.00
7748;BME280;3918;42.564;23.164;2023-06-26T04:28:30;-11650.84;;;-142.29;100.00
7748;BME280;3918;42.564;23.164;2023-06-26T04:30:57;-11650.84;;;-142.29;100.00
7748;BME280;3918;42.564;23.164;2023-06-26T04:33:25;-11650.84;;;-142.29;100.00
7748;BME280;3918;42.564;23.164;2023-06-26T04:35:52;-11650.84;;;-142.29;100.00
7748;BME280;3918;42.564;23.164;2023-06-26T04:38:19;-11650.84;;;-142.29;100.00
7748;BME280;3918;42.564;23.164;2023-06-26T04:40:47;-11650.84;;;-142.29;100.00
7748;BME280;3918;42.564;23.164;2023-06-26T04:43:14;-11650.84;;;-142.29;100.00
7748;BME280;3918;42.564;23.164;2023-06-26T04:45:41;-11650.84;;;-142.29;100.00
7748;BME280;3918;42.564;23.164;2023-06-26T04:48:08;-11650.84;;;-142.29;100.00
7748;BME280;3918;42.564;23.164;2023-06-26T04:50:36;-11650.84;;;-142.29;100.00
7748;BME280;3918;42.564;23.164;2023-06-26T04:53:03;-11650.84;;;-142.29;100.00
7748;BME280;3918;42.564;23.164;2023-06-26T04:55:30;-11650.84;;;-142.29;100.00
7748;BME280;3918;42.564;23.164;2023-06-26T04:57:57;-11650.84;;;-142.29;100.00
7748;BME280;3918;42.564;23.164;2023-06-26T05:00:24;-11650.84;;;-142.29;100.00
7748;BME280;3918;42.564;23.164;2023-06-26T05:02:51;-11650.84;;;-142.29;100.00
7748;BME280;3918;42.564;23.164;2023-06-26T05:05:26;-11650.84;;;-142.29;100.00
7748;BME280;3918;42.564;23.164;2023-06-26T05:07:56;-11650.84;;;-142.29;100.00
7748;BME280;3918;42.564;23.164;2023-06-26T05:10:23;-11650.84;;;-142.29;100.00
7748;BME280;3918;42.564;23.164;2023-06-26T05:12:50;-11650.84;;;-142.29;100.00
7748;BME280;3918;42.564;23.164;2023-06-26T05:15:17;-11650.84;;;-142.29;100.00
7748;BME280;3918;42.564;23.164;2023-06-26T05:17:43;-11650.84;;;-142.29;100.00
7748;BME280;3918;42.564;23.164;2023-06-26T05:20:10;-11650.84;;;-142.29;100.00
7748;BME280;3918;42.564;23.164;2023-06-26T05:22:38;-11650.84;;;-142.29;100.00
7748;BME280;3918;42.564;23.164;2023-06-26T05:25:09;-11650.84;;;-142.29;100.00
7748;BME280;3918;42.564;23.164;2023-06-26T05:27:37;-11650.84;;;-142.29;100.00
7748;BME280;3918;42.564;23.164;2023-06-26T05:30:04;-11650.84;;;-142.29;100.00
7748;BME280;3918;42.564;23.164;2023-06-26T05:32:34;-11650.84;;;-142.29;100.00
7748;BME280;3918;42.564;23.164;2023-06-26T05:35:02;-11650.84;;;-142.29;100.00
7748;BME280;3918;42.564;23.164;2023-06-26T05:37:30;-11650.84;;;-142.29;100.00
7748;BME280;3918;42.564;23.164;2023-06-26T05:39:58;-11650.84;;;-142.29;100.00
7748;BME280;3918;42.564;23.164;2023-06-26T05:42:26;-11650.84;;;-142.29;100.00
7748;BME280;3918;42.564;23.164;2023-06-26T05:44:54;-11650.84;;;-142.29;100.00
7748;BME280;3918;42.564;23.164;2023-06-26T05:47:21;-11650.84;;;-142.29;100.00
7748;BME280;3918;42.564;23.164;2023-06-26T05:49:48;-11650.84;;;-142.29;100.00
7748;BME280;3918;42.564;23.164;2023-06-26T05:52:15;-11650.84;;;-142.29;100.00
7748;BME280;3918;42.564;23.164;2023-06-26T05:54:42;-11650.84;;;-142.29;100.00
7748;BME280;3918;42.564;23.164;2023-06-26T05:57:10;-11650.84;;;-142.29;100.00
7748;BME280;3918;42.564;23.164;2023-06-26T05:59:40;-11650.84;;;-142.29;100.00
7748;BME280;3918;42.564;23.164;2023-06-26T06:02:07;-11650.84;;;-142.29;100.00
7748;BME280;3918;42.564;23.164;2023-06-26T06:04:34;-11650.84;;;-142.29;100.00
7748;BME280;3918;42.564;23.164;2023-06-26T06:07:03;-11650.84;;;-142.29;100.00
7748;BME280;3918;42.564;23.164;2023-06-26T06:09:29;-11650.84;;;-142.29;100.00
7748;BME280;3918;42.564;23.164;2023-06-26T06:11:56;-11650.84;;;-142.29;100.00
7748;BME280;3918;42.564;23.164;2023-06-26T06:14:23;-11650.84;;;-142.29;100.00
7748;BME280;3918;42.564;23.164;2023-06-26T06:16:51;-11650.84;;;-142.29;100.00
7748;BME280;3918;42.564;23.164;2023-06-26T06:19:18;-11650.84;;;-142.29;100.00
7748;BME280;3918;42.564;23.164;2023-06-26T06:21:45;-11650.84;;;-142.29;100.00
7748;BME280;3918;42.564;23.164;2023-06-26T06:24:11;-11650.84;;;-142.29;100.00
7748;BME280;3918;42.564;23.164;2023-06-26T06:26:38;-11650.84;;;-142.29;100.00
7748;BME280;3918;42.564;23.164;2023-06-26T06:29:05;-11650.84;;;-142.29;100.00
7748;BME280;3918;42.564;23.164;2023-06-26T06:31:32;-11650.84;;;-142.29;100.00
7748;BME280;3918;42.564;23.164;2023-06-26T06:34:00;-11650.84;;;-142.29;100.00
7748;BME280;3918;42.564;23.164;2023-06-26T06:36:27;-11650.84;;;-142.29;100.00
7748;BME280;3918;42.564;23.164;2023-06-26T06:38:54;-11650.84;;;-142.29;100.00
7748;BME280;3918;42.564;23.164;2023-06-26T06:41:21;-11650.84;;;-142.29;100.00
7748;BME280;3918;42.564;23.164;2023-06-26T06:43:48;-11650.84;;;-142.29;100.00
7748;BME280;3918;42.564;23.164;2023-06-26T06:46:14;-11650.84;;;-142.29;100.00
7748;BME280;3918;42.564;23.164;2023-06-26T06:48:41;-11650.84;;;-142.29;100.00
7748;BME280;3918;42.564;23.164;2023-06-26T06:51:09;-11650.84;;;-142.29;100.00
7748;BME280;3918;42.564;23.164;2023-06-26T06:53:36;-11650.84;;;-142.29;100.00
7748;BME280;3918;42.564;23.164;2023-06-26T06:56:03;-11650.84;;;-142.29;100.00
7748;BME280;3918;42.564;23.164;2023-06-26T06:58:30;-11650.84;;;-142.29;100.00
7748;BME280;3918;42.564;23.164;2023-06-26T07:00:59;-11650.84;;;-142.29;100.00
7748;BME280;3918;42.564;23.164;2023-06-26T07:03:28;-11650.84;;;-142.29;100.00
7748;BME280;3918;42.564;23.164;2023-06-26T07:05:55;-11650.84;;;-142.29;100.00
7748;BME280;3918;42.564;23.164;2023-06-26T07:08:23;-11650.84;;;-142.29;100.00
7748;BME280;3918;42.564;23.164;2023-06-26T07:10:50;-11650.84;;;-142.29;100.00
7748;BME280;3918;42.564;23.164;2023-06-26T07:13:17;-11650.84;;;-142.29;100.00
7748;BME280;3918;42.564;23.164;2023-06-26T07:15:45;-11650.84;;;-142.29;100.00
7748;BME280;3918;42.564;23.164;2023-06-26T07:18:13;-11650.84;;;-142.29;100.00
7748;BME280;3918;42.564;23.164;2023-06-26T07:20:40;-11650.84;;;-142.29;100.00
7748;BME280;3918;42.564;23.164;2023-06-26T07:23:07;-11650.84;;;-142.29;100.00
7748;BME280;3918;42.564;23.164;2023-06-26T07:25:36;-11650.84;;;-142.29;100.00
7748;BME280;3918;42.564;23.164;2023-06-26T07:28:06;-11650.84;;;-142.29;100.00
7748;BME280;3918;42.564;23.164;2023-06-26T07:30:36;-11650.84;;;-142.29;100.00
7748;BME280;3918;42.564;23.164;2023-06-26T07:33:03;-11650.84;;;-142.29;100.00
7748;BME280;3918;42.564;23.164;2023-06-26T07:35:29;-11650.84;;;-142.29;100.00
7748;BME280;3918;42.564;23.164;2023-06-26T07:37:56;-11650.84;;;-142.29;100.00
7748;BME280;3918;42.564;23.164;2023-06-26T07:40:23;-11650.84;;;-142.29;100.00
7748;BME280;3918;42.564;23.164;2023-06-26T07:42:51;-11650.84;;;-142.29;100.00
7748;BME280;3918;42.564;23.164;2023-06-26T07:45:19;-11650.84;;;-142.29;100.00
7748;BME280;3918;42.564;23.164;2023-06-26T07:47:46;-11650.84;;;-142.29;100.00
7748;BME280;3918;42.564;23.164;2023-06-26T07:50:13;-11650.84;;;-142.29;100.00
7748;BME280;3918;42.564;23.164;2023-06-26T07:52:44;-11650.84;;;-142.29;100.00
7748;BME280;3918;42.564;23.164;2023-06-26T07:55:11;-11650.84;;;-142.29;100.00
7748;BME280;3918;42.564;23.164;2023-06-26T07:57:38;-11650.84;;;-142.29;100.00
7748;BME280;3918;42.564;23.164;2023-06-26T08:00:07;-11650.84;;;-142.29;97.96
7748;BME280;3918;42.564;23.164;2023-06-26T08:02:34;-11650.84;;;-142.29;100.00
7748;BME280;3918;42.564;23.164;2023-06-26T08:05:01;-11650.84;;;-142.29;100.00
7748;BME280;3918;42.564;23.164;2023-06-26T08:07:28;-11650.84;;;-142.29;100.00
7748;BME280;3918;42.564;23.164;2023-06-26T08:09:55;-11650.84;;;-142.29;100.00
7748;BME280;3918;42.564;23.164;2023-06-26T08:12:22;-11650.84;;;-142.29;100.00
7748;BME280;3918;42.564;23.164;2023-06-26T08:14:49;-11650.84;;;-142.29;100.00
7748;BME280;3918;42.564;23.164;2023-06-26T08:17:17;-11650.84;;;-142.29;100.00
7748;BME280;3918;42.564;23.164;2023-06-26T08:19:44;-11650.84;;;-142.29;100.00
7748;BME280;3918;42.564;23.164;2023-06-26T08:22:14;-11650.84;;;-142.29;92.72
7748;BME280;3918;42.564;23.164;2023-06-26T08:24:40;-11650.84;;;-142.29;79.63
7748;BME280;3918;42.564;23.164;2023-06-26T08:27:07;-11650.84;;;-142.29;71.67
7748;BME280;3918;42.564;23.164;2023-06-26T08:29:34;-11650.84;;;-142.29;66.22
7748;BME280;3918;42.564;23.164;2023-06-26T08:32:01;-11650.84;;;-142.29;64.01
7748;BME280;3918;42.564;23.164;2023-06-26T08:34:30;-11650.84;;;-142.29;66.38
7748;BME280;3918;42.564;23.164;2023-06-26T08:36:56;-11650.84;;;-142.29;79.25
7748;BME280;3918;42.564;23.164;2023-06-26T08:39:24;-11650.84;;;-142.29;83.70
7748;BME280;3918;42.564;23.164;2023-06-26T08:41:50;-11650.84;;;-142.29;94.30
7748;BME280;3918;42.564;23.164;2023-06-26T08:44:17;-11650.84;;;-142.29;100.00
7748;BME280;3918;42.564;23.164;2023-06-26T08:46:45;-11650.84;;;-142.29;100.00
7748;BME280;3918;42.564;23.164;2023-06-26T08:49:21;-11650.84;;;-142.29;100.00
7748;BME280;3918;42.564;23.164;2023-06-26T08:51:52;-11650.84;;;-142.29;100.00
7748;BME280;3918;42.564;23.164;2023-06-26T08:54:23;-11650.84;;;-142.29;92.75
7748;BME280;3918;42.564;23.164;2023-06-26T08:56:55;-11650.84;;;-142.29;84.35
7748;BME280;3918;42.564;23.164;2023-06-26T08:59:23;-11650.84;;;-142.29;81.05
7748;BME280;3918;42.564;23.164;2023-06-26T09:01:51;-11650.84;;;-142.29;73.20
7748;BME280;3918;42.564;23.164;2023-06-26T09:04:20;-11650.84;;;-142.29;71.62
7748;BME280;3918;42.564;23.164;2023-06-26T09:06:47;-11650.84;;;-142.29;73.60
7748;BME280;3918;42.564;23.164;2023-06-26T09:09:15;-11650.84;;;-142.29;73.38
7748;BME280;3918;42.564;23.164;2023-06-26T09:11:42;-11650.84;;;-142.29;77.93
7748;BME280;3918;42.564;23.164;2023-06-26T09:14:08;-11650.84;;;-142.29;80.63
7748;BME280;3918;42.564;23.164;2023-06-26T09:16:39;-11650.84;;;-142.29;79.79
7748;BME280;3918;42.564;23.164;2023-06-26T09:19:09;-11650.84;;;-142.29;78.82
7748;BME280;3918;42.564;23.164;2023-06-26T09:21:38;-11650.84;;;-142.29;78.42
7748;BME280;3918;42.564;23.164;2023-06-26T09:24:06;-11650.84;;;-142.29;80.66
7748;BME280;3918;42.564;23.164;2023-06-26T09:26:35;-11650.84;;;-142.29;82.75
7748;BME280;3918;42.564;23.164;2023-06-26T09:29:03;-11650.84;;;-142.29;86.06
7748;BME280;3918;42.564;23.164;2023-06-26T09:31:30;-11650.84;;;-142.29;90.86
7748;BME280;3918;42.564;23.164;2023-06-26T09:33:58;-11650.84;;;-142.29;88.54
7748;BME280;3918;42.564;23.164;2023-06-26T09:36:28;-11650.84;;;-142.29;84.67
7748;BME280;3918;42.564;23.164;2023-06-26T09:38:58;-11650.84;;;-142.29;85.30
7748;BME280;3918;42.564;23.164;2023-06-26T09:41:25;-11650.84;;;-142.29;89.23
7748;BME280;3918;42.564;23.164;2023-06-26T09:43:54;-11650.84;;;-142.29;91.26
7748;BME280;3918;42.564;23.164;2023-06-26T09:46:24;-11650.84;;;-142.29;93.92
7748;BME280;3918;42.564;23.164;2023-06-26T09:48:58;-11650.84;;;-142.29;91.82
7748;BME280;3918;42.564;23.164;2023-06-26T09:51:25;-11650.84;;;-142.29;91.60
7748;BME280;3918;42.564;23.164;2023-06-26T09:53:52;-11650.84;;;-142.29;90.59
7748;BME280;3918;42.564;23.164;2023-06-26T09:56:19;-11650.84;;;-142.29;88.35
7748;BME280;3918;42.564;23.164;2023-06-26T09:58:47;-11650.84;;;-142.29;89.31
7748;BME280;3918;42.564;23.164;2023-06-26T10:01:17;-11650.84;;;-142.29;90.45
7748;BME280;3918;42.564;23.164;2023-06-26T10:03:44;-11650.84;;;-142.29;87.20
7748;BME280;3918;42.564;23.164;2023-06-26T10:06:11;-11650.84;;;-142.29;84.05
7748;BME280;3918;42.564;23.164;2023-06-26T10:08:39;-11650.84;;;-142.29;82.49
7748;BME280;3918;42.564;23.164;2023-06-26T10:11:08;-11650.84;;;-142.29;80.74
7748;BME280;3918;42.564;23.164;2023-06-26T10:13:39;-11650.84;;;-142.29;80.28
7748;BME280;3918;42.564;23.164;2023-06-26T10:16:11;-11650.84;;;-142.29;80.68
7748;BME280;3918;42.564;23.164;2023-06-26T10:18:40;-11650.84;;;-142.29;80.19
7748;BME280;3918;42.564;23.164;2023-06-26T10:21:09;-11650.84;;;-142.29;81.83
7748;BME280;3918;42.564;23.164;2023-06-26T10:23:36;-11650.84;;;-142.29;81.53
7748;BME280;3918;42.564;23.164;2023-06-26T10:26:06;-11650.84;;;-142.29;80.79
7748;BME280;3918;42.564;23.164;2023-06-26T10:28:34;-11650.84;;;-142.29;81.95
7748;BME280;3918;42.564;23.164;2023-06-26T10:31:03;-11650.84;;;-142.29;86.58
7748;BME280;3918;42.564;23.164;2023-06-26T10:33:32;-11650.84;;;-142.29;90.48
7748;BME280;3918;42.564;23.164;2023-06-26T10:36:18;-11650.84;;;-142.29;86.28
7748;BME280;3918;42.564;23.164;2023-06-26T10:38:50;-11650.84;;;-142.29;87.42
7748;BME280;3918;42.564;23.164;2023-06-26T10:41:20;-11650.84;;;-142.29;86.93
7748;BME280;3918;42.564;23.164;2023-06-26T10:43:49;-11650.84;;;-142.29;87.69
7748;BME280;3918;42.564;23.164;2023-06-26T10:46:18;-11650.84;;;-142.29;90.00
7748;BME280;3918;42.564;23.164;2023-06-26T10:48:58;-11650.84;;;-142.29;92.22
7748;BME280;3918;42.564;23.164;2023-06-26T10:51:27;-11650.84;;;-142.29;86.49
7748;BME280;3918;42.564;23.164;2023-06-26T10:53:54;-11650.84;;;-142.29;82.63
7748;BME280;3918;42.564;23.164;2023-06-26T10:56:21;-11650.84;;;-142.29;82.48
7748;BME280;3918;42.564;23.164;2023-06-26T10:59:18;-11650.84;;;-142.29;75.61
7748;BME280;3918;42.564;23.164;2023-06-26T11:01:46;-11650.84;;;-142.29;75.25
7748;BME280;3918;42.564;23.164;2023-06-26T11:04:14;-11650.84;;;-142.29;77.14
7748;BME280;3918;42.564;23.164;2023-06-26T11:06:45;-11650.84;;;-142.29;77.51
7748;BME280;3918;42.564;23.164;2023-06-26T11:09:18;-11650.84;;;-142.29;78.49
7748;BME280;3918;42.564;23.164;2023-06-26T11:11:59;-11650.84;;;-142.29;83.06
7748;BME280;3918;42.564;23.164;2023-06-26T11:14:30;-11650.84;;;-142.29;80.04
7748;BME280;3918;42.564;23.164;2023-06-26T11:16:58;-11650.84;;;-142.29;81.03
7748;BME280;3918;42.564;23.164;2023-06-26T11:19:26;-11650.84;;;-142.29;81.81
7748;BME280;3918;42.564;23.164;2023-06-26T11:22:05;-11650.84;;;-142.29;83.51
7748;BME280;3918;42.564;23.164;2023-06-26T11:24:32;-11650.84;;;-142.29;85.21
7748;BME280;3918;42.564;23.164;2023-06-26T11:27:02;-11650.84;;;-142.29;84.54
7748;BME280;3918;42.564;23.164;2023-06-26T11:29:30;-11650.84;;;-142.29;84.00
7748;BME280;3918;42.564;23.164;2023-06-26T11:32:02;-11650.84;;;-142.29;83.98
7748;BME280;3918;42.564;23.164;2023-06-26T11:34:31;-11650.84;;;-142.29;84.60
7748;BME280;3918;42.564;23.164;2023-06-26T11:36:58;-11650.84;;;-142.29;87.17
7748;BME280;3918;42.564;23.164;2023-06-26T11:39:28;-11650.84;;;-142.29;86.50
7748;BME280;3918;42.564;23.164;2023-06-26T11:41:55;-11650.84;;;-142.29;88.33
7748;BME280;3918;42.564;23.164;2023-06-26T11:44:22;-11650.84;;;-142.29;83.93
7748;BME280;3918;42.564;23.164;2023-06-26T11:46:51;-11650.84;;;-142.29;84.89
7748;BME280;3918;42.564;23.164;2023-06-26T11:49:21;-11650.84;;;-142.29;84.97
7748;BME280;3918;42.564;23.164;2023-06-26T11:51:48;-11650.84;;;-142.29;86.22
7748;BME280;3918;42.564;23.164;2023-06-26T11:54:22;-11650.84;;;-142.29;85.95
7748;BME280;3918;42.564;23.164;2023-06-26T11:56:54;-11650.84;;;-142.29;84.93
7748;BME280;3918;42.564;23.164;2023-06-26T11:59:22;-11650.84;;;-142.29;84.38
7748;BME280;3918;42.564;23.164;2023-06-26T12:01:50;-11650.84;;;-142.29;80.49
7748;BME280;3918;42.564;23.164;2023-06-26T12:04:18;-11650.84;;;-142.29;77.52
7748;BME280;3918;42.564;23.164;2023-06-26T12:06:47;-11650.84;;;-142.29;77.12
7748;BME280;3918;42.564;23.164;2023-06-26T12:09:17;-11650.84;;;-142.29;77.17
7748;BME280;3918;42.564;23.164;2023-06-26T12:11:46;-11650.84;;;-142.29;76.49
7748;BME280;3918;42.564;23.164;2023-06-26T12:14:16;-11650.84;;;-142.29;77.60
7748;BME280;3918;42.564;23.164;2023-06-26T12:16:44;-11650.84;;;-142.29;79.28
7748;BME280;3918;42.564;23.164;2023-06-26T12:19:11;-11650.84;;;-142.29;77.88
7748;BME280;3918;42.564;23.164;2023-06-26T12:21:46;-11650.84;;;-142.29;81.35
7748;BME280;3918;42.564;23.164;2023-06-26T12:24:17;-11650.84;;;-142.29;80.49
7748;BME280;3918;42.564;23.164;2023-06-26T12:26:45;-11650.84;;;-142.29;79.63
7748;BME280;3918;42.564;23.164;2023-06-26T12:29:15;-11650.84;;;-142.29;80.58
7748;BME280;3918;42.564;23.164;2023-06-26T12:31:44;-11650.84;;;-142.29;81.32
7748;BME280;3918;42.564;23.164;2023-06-26T12:34:13;-11650.84;;;-142.29;82.66
7748;BME280;3918;42.564;23.164;2023-06-26T12:36:43;-11650.84;;;-142.29;80.98
7748;BME280;3918;42.564;23.164;2023-06-26T12:39:11;-11650.84;;;-142.29;78.90
7748;BME280;3918;42.564;23.164;2023-06-26T12:41:48;-11650.84;;;-142.29;78.83
7748;BME280;3918;42.564;23.164;2023-06-26T12:44:25;-11650.84;;;-142.29;77.27
7748;BME280;3918;42.564;23.164;2023-06-26T12:46:55;-11650.84;;;-142.29;78.64
7748;BME280;3918;42.564;23.164;2023-06-26T12:49:29;-11650.84;;;-142.29;79.23
7748;BME280;3918;42.564;23.164;2023-06-26T12:51:58;-11650.84;;;-142.29;76.84
7748;BME280;3918;42.564;23.164;2023-06-26T12:54:25;-11650.84;;;-142.29;74.88
7748;BME280;3918;42.564;23.164;2023-06-26T12:56:51;-11650.84;;;-142.29;73.13
7748;BME280;3918;42.564;23.164;2023-06-26T12:59:18;-11650.84;;;-142.29;75.26
7748;BME280;3918;42.564;23.164;2023-06-26T13:01:47;-11650.84;;;-142.29;73.75
7748;BME280;3918;42.564;23.164;2023-06-26T13:04:14;-11650.84;;;-142.29;71.16
7748;BME280;3918;42.564;23.164;2023-06-26T13:06:41;-11650.84;;;-142.29;71.99
7748;BME280;3918;42.564;23.164;2023-06-26T13:09:08;-11650.84;;;-142.29;71.73
7748;BME280;3918;42.564;23.164;2023-06-26T13:11:36;-11650.84;;;-142.29;72.18
7748;BME280;3918;42.564;23.164;2023-06-26T13:14:03;-11650.84;;;-142.29;70.99
7748;BME280;3918;42.564;23.164;2023-06-26T13:16:30;-11650.84;;;-142.29;71.83
7748;BME280;3918;42.564;23.164;2023-06-26T13:18:59;-11650.84;;;-142.29;73.10
7748;BME280;3918;42.564;23.164;2023-06-26T13:21:27;-11650.84;;;-142.29;74.41
7748;BME280;3918;42.564;23.164;2023-06-26T13:23:54;-11650.84;;;-142.29;74.11
7748;BME280;3918;42.564;23.164;2023-06-26T13:26:21;-11650.84;;;-142.29;74.73
7748;BME280;3918;42.564;23.164;2023-06-26T13:28:49;-11650.84;;;-142.29;72.65
7748;BME280;3918;42.564;23.164;2023-06-26T13:31:16;-11650.84;;;-142.29;75.00
7748;BME280;3918;42.564;23.164;2023-06-26T13:33:43;-11650.84;;;-142.29;74.54
7748;BME280;3918;42.564;23.164;2023-06-26T13:36:12;-11650.84;;;-142.29;77.43
7748;BME280;3918;42.564;23.164;2023-06-26T13:38:39;-11650.84;;;-142.29;72.53
7748;BME280;3918;42.564;23.164;2023-06-26T13:41:06;-11650.84;;;-142.29;73.59
7748;BME280;3918;42.564;23.164;2023-06-26T13:43:33;-11650.84;;;-142.29;74.23
7748;BME280;3918;42.564;23.164;2023-06-26T13:46:00;-11650.84;;;-142.29;74.72
7748;BME280;3918;42.564;23.164;2023-06-26T13:48:28;-11650.84;;;-142.29;74.62
7748;BME280;3918;42.564;23.164;2023-06-26T13:50:55;-11650.84;;;-142.29;77.58
7748;BME280;3918;42.564;23.164;2023-06-26T13:53:23;-11650.84;;;-142.29;75.03
7748;BME280;3918;42.564;23.164;2023-06-26T13:55:50;-11650.84;;;-142.29;74.68
7748;BME280;3918;42.564;23.164;2023-06-26T13:58:17;-11650.84;;;-142.29;73.89
7748;BME280;3918;42.564;23.164;2023-06-26T14:00:49;-11650.84;;;-142.29;75.81
7748;BME280;3918;42.564;23.164;2023-06-26T14:03:16;-11650.84;;;-142.29;75.86
7748;BME280;3918;42.564;23.164;2023-06-26T14:05:43;-11650.84;;;-142.29;75.38
7748;BME280;3918;42.564;23.164;2023-06-26T14:08:10;-11650.84;;;-142.29;77.12
7748;BME280;3918;42.564;23.164;2023-06-26T14:10:38;-11650.84;;;-142.29;77.06
7748;BME280;3918;42.564;23.164;2023-06-26T14:13:05;-11650.84;;;-142.29;75.50
7748;BME280;3918;42.564;23.164;2023-06-26T14:15:32;-11650.84;;;-142.29;74.93
7748;BME280;3918;42.564;23.164;2023-06-26T14:17:59;-11650.84;;;-142.29;78.14
7748;BME280;3918;42.564;23.164;2023-06-26T14:20:28;-11650.84;;;-142.29;76.51
7748;BME280;3918;42.564;23.164;2023-06-26T14:22:58;-11650.84;;;-142.29;77.38
7748;BME280;3918;42.564;23.164;2023-06-26T14:25:25;-11650.84;;;-142.29;79.07
7748;BME280;3918;42.564;23.164;2023-06-26T14:27:55;-11650.84;;;-142.29;77.23
7748;BME280;3918;42.564;23.164;2023-06-26T14:30:22;-11650.84;;;-142.29;79.12
7748;BME280;3918;42.564;23.164;2023-06-26T14:32:49;-11650.84;;;-142.29;79.23
7748;BME280;3918;42.564;23.164;2023-06-26T14:35:16;-11650.84;;;-142.29;79.25
7748;BME280;3918;42.564;23.164;2023-06-26T14:37:43;-11650.84;;;-142.29;80.28
7748;BME280;3918;42.564;23.164;2023-06-26T14:40:11;-11650.84;;;-142.29;79.63
7748;BME280;3918;42.564;23.164;2023-06-26T14:42:38;-11650.84;;;-142.29;81.86
7748;BME280;3918;42.564;23.164;2023-06-26T14:45:08;-11650.84;;;-142.29;79.81
7748;BME280;3918;42.564;23.164;2023-06-26T14:47:34;-11650.84;;;-142.29;80.06
7748;BME280;3918;42.564;23.164;2023-06-26T14:50:01;-11650.84;;;-142.29;79.05
7748;BME280;3918;42.564;23.164;2023-06-26T14:52:28;-11650.84;;;-142.29;78.82
7748;BME280;3918;42.564;23.164;2023-06-26T14:54:55;-11650.84;;;-142.29;79.72
7748;BME280;3918;42.564;23.164;2023-06-26T14:57:22;-11650.84;;;-142.29;78.08
7748;BME280;3918;42.564;23.164;2023-06-26T14:59:49;-11650.84;;;-142.29;77.36
7748;BME280;3918;42.564;23.164;2023-06-26T15:02:17;-11650.84;;;-142.29;78.69
7748;BME280;3918;42.564;23.164;2023-06-26T15:04:44;-11650.84;;;-142.29;78.42
7748;BME280;3918;42.564;23.164;2023-06-26T15:07:12;-11650.84;;;-142.29;79.49
7748;BME280;3918;42.564;23.164;2023-06-26T15:09:38;-11650.84;;;-142.29;79.42
7748;BME280;3918;42.564;23.164;2023-06-26T15:12:07;-11650.84;;;-142.29;77.95
7748;BME280;3918;42.564;23.164;2023-06-26T15:14:34;-11650.84;;;-142.29;77.66
7748;BME280;3918;42.564;23.164;2023-06-26T15:17:00;-11650.84;;;-142.29;75.24
7748;BME280;3918;42.564;23.164;2023-06-26T15:19:29;-11650.84;;;-142.29;75.95
7748;BME280;3918;42.564;23.164;2023-06-26T15:21:56;-11650.84;;;-142.29;77.76
7748;BME280;3918;42.564;23.164;2023-06-26T15:24:23;-11650.84;;;-142.29;77.03
7748;BME280;3918;42.564;23.164;2023-06-26T15:26:49;-11650.84;;;-142.29;76.97
7748;BME280;3918;42.564;23.164;2023-06-26T15:29:16;-11650.84;;;-142.29;78.55
7748;BME280;3918;42.564;23.164;2023-06-26T15:31:43;-11650.84;;;-142.29;78.14
7748;BME280;3918;42.564;23.164;2023-06-26T15:34:11;-11650.84;;;-142.29;76.29
7748;BME280;3918;42.564;23.164;2023-06-26T15:36:40;-11650.84;;;-142.29;75.55
7748;BME280;3918;42.564;23.164;2023-06-26T15:39:06;-11650.84;;;-142.29;75.03
7748;BME280;3918;42.564;23.164;2023-06-26T15:41:33;-11650.84;;;-142.29;74.38
7748;BME280;3918;42.564;23.164;2023-06-26T15:44:02;-11650.84;;;-142.29;76.41
7748;BME280;3918;42.564;23.164;2023-06-26T15:46:29;-11650.84;;;-142.29;76.92
7748;BME280;3918;42.564;23.164;2023-06-26T15:48:56;-11650.84;;;-142.29;79.80
7748;BME280;3918;42.564;23.164;2023-06-26T15:51:23;-11650.84;;;-142.29;78.92
7748;BME280;3918;42.564;23.164;2023-06-26T15:53:51;-11650.84;;;-142.29;80.81
7748;BME280;3918;42.564;23.164;2023-06-26T15:56:18;-11650.84;;;-142.29;80.56
7748;BME280;3918;42.564;23.164;2023-06-26T15:58:44;-11650.84;;;-142.29;80.77
7748;BME280;3918;42.564;23.164;2023-06-26T16:01:14;-11650.84;;;-142.29;82.82
7748;BME280;3918;42.564;23.164;2023-06-26T16:03:41;-11650.84;;;-142.29;83.48
7748;BME280;3918;42.564;23.164;2023-06-26T16:06:09;-11650.84;;;-142.29;83.19
7748;BME280;3918;42.564;23.164;2023-06-26T16:08:36;-11650.84;;;-142.29;82.32
7748;BME280;3918;42.564;23.164;2023-06-26T16:11:04;-11650.84;;;-142.29;82.50
7748;BME280;3918;42.564;23.164;2023-06-26T16:13:31;-11650.84;;;-142.29;84.21
7748;BME280;3918;42.564;23.164;2023-06-26T16:15:58;-11650.84;;;-142.29;84.03
7748;BME280;3918;42.564;23.164;2023-06-26T16:18:25;-11650.84;;;-142.29;85.57
7748;BME280;3918;42.564;23.164;2023-06-26T16:20:52;-11650.84;;;-142.29;85.08
7748;BME280;3918;42.564;23.164;2023-06-26T16:23:19;-11650.84;;;-142.29;85.76
7748;BME280;3918;42.564;23.164;2023-06-26T16:25:46;-11650.84;;;-142.29;86.79
7748;BME280;3918;42.564;23.164;2023-06-26T16:28:14;-11650.84;;;-142.29;86.28
7748;BME280;3918;42.564;23.164;2023-06-26T16:30:41;-11650.84;;;-142.29;87.75
7748;BME280;3918;42.564;23.164;2023-06-26T16:33:08;-11650.84;;;-142.29;89.32
7748;BME280;3918;42.564;23.164;2023-06-26T16:35:35;-11650.84;;;-142.29;91.10
7748;BME280;3918;42.564;23.164;2023-06-26T16:38:03;-11650.84;;;-142.29;89.72
7748;BME280;3918;42.564;23.164;2023-06-26T16:40:31;-11650.84;;;-142.29;89.56